Time;durP1;ratioP1;P1;durP2;ratioP2;P2;SDS_P1;SDS_P2;PMS_P1;PMS_P2;Temp;Humidity;BMP_temperature;BMP_pressure;BME280_temperature;BME280_humidity;BME280_pressure;Samples;Min_cycle;Max_cycle;Signal;HPM_P1;HPM_P2
2022/07/14 00:01:32;;;;;;;16.85;2.35;;;;;;;12.95;100.00;155777.16;5009998;28;20038;-82
2022/07/14 00:03:59;;;;;;;15.18;2.35;;;;;;;12.96;100.00;155779.75;5010306;28;20045;-80
2022/07/14 00:06:25;;;;;;;12.52;2.50;;;;;;;13.05;100.00;155802.88;5010952;28;20103;-80
2022/07/14 00:08:51;;;;;;;12.93;2.55;;;;;;;12.93;100.00;155770.75;5026500;28;20476;-81
2022/07/14 00:11:16;;;;;;;12.98;2.40;;;;;;;12.93;100.00;155772.00;4989962;28;20034;-82
2022/07/14 00:13:42;;;;;;;13.68;2.00;;;;;;;12.90;100.00;155763.03;5005089;28;20041;-80
2022/07/14 00:16:07;;;;;;;16.15;2.65;;;;;;;12.94;100.00;155774.63;4996983;28;20030;-81
2022/07/14 00:18:33;;;;;;;14.93;2.15;;;;;;;12.93;100.00;155772.00;4998847;28;20045;-79
2022/07/14 00:20:58;;;;;;;11.73;2.42;;;;;;;13.01;100.00;155791.28;5010614;28;20087;-81
2022/07/14 00:23:25;;;;;;;11.18;2.42;;;;;;;12.83;100.00;155747.63;5024600;28;20038;-81
2022/07/14 00:25:51;;;;;;;14.85;2.13;;;;;;;12.92;100.00;155768.16;4991978;28;20073;-81
2022/07/14 00:28:17;;;;;;;11.55;1.90;;;;;;;12.93;100.00;155772.00;5008576;28;20065;-78
2022/07/14 00:30:44;;;;;;;14.25;2.63;;;;;;;12.91;100.00;155766.88;4996163;28;21723;-82
2022/07/14 00:33:09;;;;;;;12.80;2.40;;;;;;;12.79;100.00;155736.03;5007626;28;20046;-81
2022/07/14 00:35:35;;;;;;;11.88;1.90;;;;;;;12.74;100.00;155723.22;5003498;28;20104;-81
2022/07/14 00:38:02;;;;;;;12.52;2.53;;;;;;;12.65;100.00;155701.34;4990653;28;20042;-79
2022/07/14 00:40:29;;;;;;;12.75;2.25;;;;;;;12.68;100.00;155709.09;5015550;28;20057;-81
2022/07/14 00:42:54;;;;;;;12.52;2.20;;;;;;;12.61;100.00;155692.34;4997648;28;20045;-80
2022/07/14 00:45:21;;;;;;;14.73;2.28;;;;;;;12.54;100.00;155673.09;5005572;28;20108;-81
2022/07/14 00:47:48;;;;;;;14.95;1.95;;;;;;;12.53;100.00;155671.81;5028384;28;20038;-81
2022/07/14 00:50:16;;;;;;;13.95;2.30;;;;;;;12.37;100.00;155631.97;5013510;28;20030;-78
2022/07/14 00:52:44;;;;;;;18.23;2.67;;;;;;;12.46;100.00;155655.09;5026144;28;20819;-81
2022/07/14 00:55:12;;;;;;;9.68;2.20;;;;;;;12.45;100.00;155651.25;5026500;28;20034;-82
2022/07/14 00:57:38;;;;;;;10.65;1.83;;;;;;;12.48;100.00;155658.97;5003325;28;20501;-80
2022/07/14 01:00:05;;;;;;;14.68;2.20;;;;;;;12.53;100.00;155670.56;4976093;28;20513;-81
2022/07/14 01:02:31;;;;;;;13.35;2.15;;;;;;;12.57;100.00;155680.81;5020110;28;20073;-81
2022/07/14 01:04:56;;;;;;;16.67;2.42;;;;;;;12.48;100.00;155657.69;4996665;28;20038;-82
2022/07/14 01:07:22;;;;;;;13.93;2.45;;;;;;;12.54;100.00;155674.38;5008808;28;20967;-80
2022/07/14 01:09:48;;;;;;;16.17;2.53;;;;;;;12.49;100.00;155660.25;5007013;28;20527;-81
2022/07/14 01:12:14;;;;;;;7.80;2.13;;;;;;;12.51;100.00;155665.38;4985883;28;20158;-80
2022/07/14 01:14:41;;;;;;;12.15;2.05;;;;;;;12.44;100.00;155648.69;5006823;28;20044;-81
2022/07/14 01:17:08;;;;;;;14.10;2.40;;;;;;;12.36;100.00;155628.16;4995192;28;20494;-81
2022/07/14 01:19:34;;;;;;;12.63;2.25;;;;;;;12.39;100.00;155637.13;5014358;28;20501;-81
2022/07/14 01:22:00;;;;;;;21.42;2.83;;;;;;;12.29;100.00;155610.19;5028767;28;20147;-81
2022/07/14 01:24:27;;;;;;;12.02;2.80;;;;;;;12.22;100.00;155594.78;4993446;28;20078;-81
2022/07/14 01:26:53;;;;;;;16.13;2.40;;;;;;;12.30;100.00;155614.03;4977776;28;20125;-82
2022/07/14 01:29:19;;;;;;;15.30;2.20;;;;;;;12.16;100.00;155579.34;5004413;28;20468;-82
2022/07/14 01:31:45;;;;;;;12.57;2.55;;;;;;;12.27;100.00;155606.31;5001616;28;20073;-81
2022/07/14 01:34:11;;;;;;;15.85;2.90;;;;;;;12.32;100.00;155617.84;4999370;28;20060;-81
2022/07/14 01:36:38;;;;;;;9.82;1.90;;;;;;;12.31;100.00;155615.31;4998886;28;20117;-82
2022/07/14 01:39:05;;;;;;;13.23;2.47;;;;;;;12.30;100.00;155612.72;5007350;28;20041;-81
2022/07/14 01:41:31;;;;;;;10.57;1.73;;;;;;;12.24;100.00;155599.91;5008540;28;20046;-82
2022/07/14 01:43:56;;;;;;;10.25;2.10;;;;;;;12.14;100.00;155574.19;5007936;28;20041;-81
2022/07/14 01:46:22;;;;;;;12.10;2.03;;;;;;;12.01;100.00;155540.81;4985838;28;20099;-83
2022/07/14 01:48:48;;;;;;;11.23;1.90;;;;;;;11.86;100.00;155504.78;4997141;28;20103;-82
2022/07/14 01:51:15;;;;;;;15.10;2.28;;;;;;;11.73;100.00;155470.16;4987913;28;20046;-80
2022/07/14 01:53:41;;;;;;;12.65;2.20;;;;;;;11.85;100.00;155502.25;5004750;28;20049;-81
2022/07/14 01:56:11;;;;;;;19.88;2.55;;;;;;;11.81;100.00;155492.00;5000829;28;20132;-80
2022/07/14 01:58:37;;;;;;;21.13;2.22;;;;;;;11.69;100.00;155462.44;5008558;28;20049;-82
2022/07/14 02:03:47;;;;;;;15.88;2.45;;;;;;;11.48;100.00;155408.53;5011961;28;20081;-80
2022/07/14 02:06:15;;;;;;;16.33;2.95;;;;;;;11.50;100.00;155413.66;4978425;28;20045;-81
2022/07/14 02:08:41;;;;;;;9.70;2.10;;;;;;;11.58;100.00;155432.91;5010508;28;20064;-82
2022/07/14 02:13:51;;;;;;;14.15;2.20;;;;;;;11.50;100.00;155413.66;5014404;28;20620;-80
2022/07/14 02:16:17;;;;;;;11.73;2.00;;;;;;;11.28;100.00;155358.44;5010424;28;20030;-80
2022/07/14 02:18:43;;;;;;;10.95;1.98;;;;;;;11.36;100.00;155379.00;5010744;28;20109;-80
2022/07/14 02:21:09;;;;;;;10.65;2.30;;;;;;;11.32;100.00;155368.75;5011536;28;20034;-80
2022/07/14 02:23:35;;;;;;;14.60;2.10;;;;;;;11.13;100.00;155321.22;4995959;28;20044;-81
2022/07/14 02:26:01;;;;;;;11.57;2.30;;;;;;;11.15;100.00;155326.41;4996255;28;20065;-80
2022/07/14 02:28:28;;;;;;;11.88;2.33;;;;;;;11.10;100.00;155313.56;4993094;28;20097;-78
2022/07/14 02:30:53;;;;;;;19.13;2.30;;;;;;;11.15;100.00;155325.09;5011974;28;20065;-81
2022/07/14 02:33:19;;;;;;;9.02;1.73;;;;;;;11.12;100.00;155318.69;4994869;28;20037;-80
2022/07/14 02:35:44;;;;;;;15.05;2.22;;;;;;;11.12;100.00;155318.69;5026454;28;20519;-80
2022/07/14 02:38:10;;;;;;;9.48;2.30;;;;;;;10.99;100.00;155286.59;4988907;28;20034;-80
2022/07/14 02:40:36;;;;;;;18.67;2.13;;;;;;;11.09;100.00;155310.97;4992959;28;20049;-80
2022/07/14 02:43:02;;;;;;;15.02;2.25;;;;;;;11.03;100.00;155295.56;5007822;28;20045;-82
2022/07/14 02:45:28;;;;;;;9.70;2.30;;;;;;;11.05;100.00;155300.72;4989417;28;20100;-80
2022/07/14 02:47:54;;;;;;;14.55;2.40;;;;;;;10.95;100.00;155275.06;5025729;28;20041;-81
2022/07/14 02:50:20;;;;;;;16.08;2.83;;;;;;;10.92;100.00;155268.63;5025753;28;20849;-80
2022/07/14 02:52:45;;;;;;;11.02;2.58;;;;;;;10.80;100.00;155237.84;5025356;28;20129;-82
2022/07/14 02:55:11;;;;;;;16.98;3.22;;;;;;;10.80;100.00;155237.84;4992750;28;20044;-81
2022/07/14 02:57:41;;;;;;;10.75;2.00;;;;;;;10.78;100.00;155234.00;4995476;28;20045;-81
2022/07/14 03:00:08;;;;;;;11.85;2.20;;;;;;;10.85;100.00;155251.97;5009818;28;20502;-80
2022/07/14 03:02:35;;;;;;;12.07;2.13;;;;;;;10.79;100.00;155235.25;5016146;28;20104;-82
2022/07/14 03:05:02;;;;;;;7.82;1.92;;;;;;;10.73;100.00;155221.16;5008425;28;20042;-80
2022/07/14 03:07:29;;;;;;;13.57;2.22;;;;;;;10.73;100.00;155221.16;4989744;28;20040;-81
2022/07/14 03:09:57;;;;;;;8.52;1.60;;;;;;;10.75;100.00;155226.28;5007583;28;20033;-80
2022/07/14 03:12:22;;;;;;;11.20;2.00;;;;;;;10.71;100.00;155217.28;5000630;28;20060;-79
2022/07/14 03:14:48;;;;;;;8.55;2.05;;;;;;;10.69;100.00;155210.88;4999067;28;20042;-80
2022/07/14 03:17:15;;;;;;;12.18;2.00;;;;;;;10.66;100.00;155204.50;4990958;28;20407;-81
2022/07/14 03:19:41;;;;;;;14.77;1.90;;;;;;;10.72;100.00;155218.59;4998880;28;20038;-81
2022/07/14 03:22:06;;;;;;;13.23;2.05;;;;;;;10.69;100.00;155210.88;5009093;28;20469;-80
2022/07/14 03:24:33;;;;;;;9.65;1.77;;;;;;;10.58;100.00;155182.66;5005135;28;20118;-81
2022/07/14 03:27:00;;;;;;;14.18;1.90;;;;;;;10.54;100.00;155173.69;4990053;28;20046;-81
2022/07/14 03:29:27;;;;;;;15.48;2.75;;;;;;;10.54;100.00;155172.41;5004233;28;20041;-81
2022/07/14 03:31:54;;;;;;;17.63;2.22;;;;;;;10.55;100.00;155174.94;5006133;28;20062;-81
2022/07/14 03:34:21;;;;;;;11.85;1.90;;;;;;;10.57;100.00;155181.41;5008899;28;20042;-80
2022/07/14 03:36:46;;;;;;;12.65;1.98;;;;;;;10.55;100.00;155174.94;4999508;28;20088;-80
2022/07/14 03:39:15;;;;;;;12.15;2.05;;;;;;;10.56;100.00;155177.53;5009990;28;20033;-81
2022/07/14 03:41:41;;;;;;;13.98;2.30;;;;;;;10.52;100.00;155168.56;5009170;28;20417;-80
2022/07/14 03:44:07;;;;;;;12.82;2.10;;;;;;;10.55;100.00;155176.28;5009798;28;20121;-79
2022/07/14 03:46:33;;;;;;;12.57;2.40;;;;;;;10.62;100.00;155192.91;5005469;28;20188;-81
2022/07/14 03:49:04;;;;;;;17.63;2.30;;;;;;;10.63;100.00;155195.50;5012982;28;20115;-80
2022/07/14 03:51:31;;;;;;;11.13;1.80;;;;;;;10.71;100.00;155216.03;4994337;28;20037;-82
2022/07/14 03:53:58;;;;;;;9.30;2.28;;;;;;;10.82;100.00;155244.25;5009730;28;20034;-81
2022/07/14 03:56:25;;;;;;;13.02;2.33;;;;;;;11.17;100.00;155331.53;5018080;28;20037;-81
2022/07/14 03:58:50;;;;;;;14.73;2.55;;;;;;;11.27;100.00;155357.19;4994841;28;20413;-81
2022/07/14 04:01:19;;;;;;;13.55;2.65;;;;;;;11.38;100.00;155384.16;5001668;28;20037;-80
2022/07/14 04:03:48;;;;;;;13.80;2.50;;;;;;;11.53;100.00;155420.06;4997012;28;20049;-79
2022/07/14 04:06:15;;;;;;;15.90;2.95;;;;;;;11.58;100.00;155432.91;5003988;28;20045;-81
2022/07/14 04:08:40;;;;;;;11.70;3.40;;;;;;;11.66;100.00;155453.47;5006918;28;20030;-80
2022/07/14 04:11:09;;;;;;;13.45;3.33;;;;;;;11.62;100.00;155444.50;5018090;28;20048;-81
2022/07/14 04:13:34;;;;;;;15.95;3.40;;;;;;;11.60;100.00;155439.34;4999799;28;20580;-81
2022/07/14 04:16:00;;;;;;;13.75;2.83;;;;;;;11.54;100.00;155422.66;4991098;28;20042;-81
2022/07/14 04:18:30;;;;;;;10.63;2.65;;;;;;;11.50;100.00;155414.94;4988380;28;20061;-79
2022/07/14 04:20:56;;;;;;;13.82;2.85;;;;;;;11.52;100.00;155418.78;5024758;28;20087;-81
2022/07/14 04:23:25;;;;;;;13.05;2.85;;;;;;;11.52;100.00;155417.53;5014774;28;20209;-80
2022/07/14 04:25:51;;;;;;;11.13;3.17;;;;;;;11.55;100.00;155425.25;5009743;28;20091;-81
2022/07/14 04:28:19;;;;;;;16.65;3.70;;;;;;;11.77;100.00;155480.41;4987874;28;20120;-80
2022/07/14 04:30:45;;;;;;;20.42;3.92;;;;;;;11.85;100.00;155500.97;5012277;28;20026;-80
2022/07/14 04:33:11;;;;;;;13.07;3.58;;;;;;;11.97;100.00;155530.56;5017034;28;20497;-81
2022/07/14 04:35:38;;;;;;;21.23;3.67;;;;;;;12.00;100.00;155538.28;4998623;28;20038;-80
2022/07/14 04:38:04;;;;;;;15.40;3.80;;;;;;;12.10;100.00;155562.66;4973623;28;20026;-82
2022/07/14 04:40:36;;;;;;;21.85;3.92;;;;;;;12.11;100.00;155565.22;4984180;28;20064;-82
2022/07/14 04:43:01;;;;;;;17.52;3.85;;;;;;;12.13;100.00;155570.34;5006008;28;20125;-81
2022/07/14 04:45:29;;;;;;;21.05;3.60;;;;;;;12.15;100.00;155576.78;4984817;28;20038;-81
2022/07/14 04:47:56;;;;;;;23.48;4.32;;;;;;;12.21;100.00;155592.19;4993943;28;20066;-80
2022/07/14 04:53:06;;;;;;;15.65;3.28;;;;;;;12.30;100.00;155612.72;5027995;28;20042;-81
2022/07/14 04:55:49;;;;;;;11.55;3.10;;;;;;;12.39;100.00;155637.13;5017407;28;20034;-81
2022/07/14 04:58:47;;;;;;;15.60;3.10;;;;;;;12.46;100.00;155655.09;5018703;28;20390;-81
2022/07/14 05:01:13;;;;;;;13.90;3.13;;;;;;;12.49;100.00;155660.25;5008339;28;20033;-82
2022/07/14 05:03:42;;;;;;;16.40;3.22;;;;;;;12.54;100.00;155673.09;5011575;28;20413;-82
2022/07/14 05:06:09;;;;;;;15.55;3.10;;;;;;;12.60;100.00;155689.81;4998433;28;20037;-82
2022/07/14 05:08:35;;;;;;;23.92;3.33;;;;;;;12.65;100.00;155701.34;5004816;28;20482;-81
2022/07/14 05:11:05;;;;;;;14.70;3.08;;;;;;;12.67;100.00;155706.50;5010280;28;20041;-80
2022/07/14 05:13:31;;;;;;;9.35;2.83;;;;;;;12.71;100.00;155715.50;5021489;28;20038;-81
2022/07/14 05:15:56;;;;;;;15.25;3.30;;;;;;;12.92;100.00;155768.16;4979681;28;20045;-82
2022/07/14 05:18:23;;;;;;;18.40;2.80;;;;;;;13.01;100.00;155792.56;4998434;28;20040;-81
2022/07/14 05:20:48;;;;;;;11.50;2.50;;;;;;;13.08;100.00;155809.28;5026217;28;20037;-82
2022/07/14 05:23:14;;;;;;;11.23;2.90;;;;;;;13.12;100.00;155818.28;4990038;28;20507;-80
2022/07/14 05:25:40;;;;;;;12.15;2.90;;;;;;;13.12;100.00;155819.56;5024857;28;20045;-80
2022/07/14 05:28:06;;;;;;;18.30;2.75;;;;;;;13.19;100.00;155837.56;5003641;28;20045;-80
2022/07/14 05:30:37;;;;;;;12.73;2.13;;;;;;;13.23;100.00;155846.56;5018161;28;20441;-80
2022/07/14 05:33:02;;;;;;;9.90;1.83;;;;;;;13.35;100.00;155876.16;5006437;28;20049;-81
2022/07/14 05:35:30;;;;;;;11.50;2.38;;;;;;;13.43;100.00;155896.75;5003743;28;20042;-81
2022/07/14 05:37:57;;;;;;;13.57;2.03;;;;;;;13.50;100.00;155914.69;5023885;28;20022;-80
2022/07/14 05:40:23;;;;;;;11.20;1.58;;;;;;;13.67;100.00;155957.13;5002321;28;20041;-79
2022/07/14 05:42:49;;;;;;;11.50;1.88;;;;;;;13.75;100.00;155977.72;5004294;28;20065;-81
2022/07/14 05:45:15;;;;;;;14.50;2.08;;;;;;;13.81;100.00;155993.13;4993651;28;20869;-81
2022/07/14 05:47:42;;;;;;;9.52;2.08;;;;;;;13.87;100.00;156007.25;5016961;28;20030;-81
2022/07/14 05:50:09;;;;;;;10.13;1.67;;;;;;;14.07;100.00;156056.09;5010266;28;20065;-81
2022/07/14 05:52:35;;;;;;;10.18;1.83;;;;;;;14.19;100.00;156086.97;4987792;28;20674;-79
2022/07/14 05:55:01;;;;;;;11.55;1.85;;;;;;;14.33;100.00;156122.97;4989754;28;20030;-80
2022/07/14 05:57:28;;;;;;;12.07;1.98;;;;;;;14.60;100.00;156189.91;5007741;28;20041;-79
2022/07/14 05:59:54;;;;;;;12.70;1.85;;;;;;;14.75;100.00;156227.22;5009585;28;20042;-81
2022/07/14 06:02:20;;;;;;;8.48;1.67;;;;;;;14.79;100.00;156237.50;4993652;28;20034;-80
2022/07/14 06:04:47;;;;;;;17.45;1.60;;;;;;;14.88;100.00;156259.34;5011928;28;20084;-80
2022/07/14 06:07:12;;;;;;;17.92;1.55;;;;;;;14.92;100.00;156270.94;4990222;28;20069;-80
2022/07/14 06:09:42;;;;;;;8.95;1.52;;;;;;;15.10;100.00;156315.94;5007624;28;20065;-79
2022/07/14 06:12:10;;;;;;;6.95;1.17;;;;;;;15.17;100.00;156333.97;5011043;28;20037;-79
2022/07/14 06:14:40;;;;;;;8.80;1.35;;;;;;;15.29;100.00;156362.28;5005606;28;20046;-80
2022/07/14 06:17:06;;;;;;;7.50;1.10;;;;;;;15.45;97.81;156402.19;4988923;28;20037;-80
2022/07/14 06:19:32;;;;;;;8.63;1.13;;;;;;;15.47;96.33;156408.59;4977908;28;20516;-79
2022/07/14 06:21:58;;;;;;;6.72;1.17;;;;;;;15.61;95.29;156443.34;4991368;28;20042;-79
2022/07/14 06:24:24;;;;;;;4.68;1.00;;;;;;;15.58;95.67;156436.91;5002826;28;20037;-79
2022/07/14 06:26:50;;;;;;;6.72;1.33;;;;;;;15.76;93.35;156482.03;5027721;28;20526;-79
2022/07/14 06:29:16;;;;;;;12.30;1.20;;;;;;;15.71;94.44;156467.81;5006466;28;20128;-80
2022/07/14 06:31:42;;;;;;;4.32;0.93;;;;;;;15.92;93.85;156521.91;4991791;28;20114;-79
2022/07/14 06:34:10;;;;;;;9.05;0.90;;;;;;;16.09;91.03;156564.38;5008081;28;20033;-79
2022/07/14 06:36:44;;;;;;;8.18;1.30;;;;;;;16.21;92.23;156592.72;5001165;28;20106;-80
2022/07/14 06:39:10;;;;;;;7.70;0.88;;;;;;;16.28;90.88;156612.00;4994217;28;20165;-79
2022/07/14 06:41:35;;;;;;;6.90;0.90;;;;;;;16.55;88.60;156678.94;5003970;28;20049;-80
2022/07/14 06:44:04;;;;;;;7.10;1.20;;;;;;;16.63;87.87;156698.25;4985850;28;20410;-79
2022/07/14 06:46:38;;;;;;;8.52;1.20;;;;;;;16.70;85.63;156717.56;5016477;28;20038;-81
2022/07/14 06:49:04;;;;;;;5.30;0.80;;;;;;;16.60;86.57;156691.84;5008635;28;20030;-80
2022/07/14 06:51:30;;;;;;;9.45;1.10;;;;;;;16.40;85.91;156640.34;5010303;28;20594;-80
2022/07/14 06:53:55;;;;;;;9.50;1.10;;;;;;;16.61;88.54;156694.41;5032947;28;20062;-81
2022/07/14 06:56:21;;;;;;;9.23;1.40;;;;;;;16.75;85.50;156729.19;4993671;28;20042;-79
2022/07/14 06:58:47;;;;;;;7.63;0.80;;;;;;;17.06;82.81;156807.78;5010989;28;20047;-80
2022/07/14 07:01:12;;;;;;;5.82;0.73;;;;;;;17.06;84.15;156807.78;4992421;28;20042;-80
2022/07/14 07:03:38;;;;;;;6.97;0.90;;;;;;;17.10;81.50;156818.13;4989245;28;20041;-79
2022/07/14 07:08:48;;;;;;;3.88;0.70;;;;;;;16.58;87.03;156685.41;5001530;28;20048;-79
2022/07/14 07:11:15;;;;;;;8.02;1.10;;;;;;;16.83;85.29;156749.81;5013203;28;20033;-80
2022/07/14 07:13:41;;;;;;;4.53;0.95;;;;;;;17.01;86.39;156794.91;5020579;28;20029;-81
2022/07/14 07:16:08;;;;;;;8.63;1.30;;;;;;;17.18;84.60;156837.44;4997406;28;20092;-81
2022/07/14 07:18:34;;;;;;;5.25;0.70;;;;;;;17.43;88.16;156900.53;4993455;28;20069;-79
2022/07/14 07:21:02;;;;;;;3.28;0.90;;;;;;;17.74;83.24;156977.81;4981833;28;20050;-79
2022/07/14 07:23:27;;;;;;;3.55;0.80;;;;;;;17.97;81.14;157034.56;5007620;28;20033;-80
2022/07/14 07:25:53;;;;;;;7.00;0.98;;;;;;;18.22;79.68;157097.75;4985555;28;20738;-80
2022/07/14 07:28:19;;;;;;;4.57;0.80;;;;;;;18.02;79.75;157048.75;4988339;28;20049;-80
2022/07/14 07:30:45;;;;;;;5.25;1.25;;;;;;;17.69;82.10;156964.97;4993378;28;20057;-80
2022/07/14 07:33:11;;;;;;;5.65;0.90;;;;;;;17.78;81.65;156988.16;4998393;28;20448;-78
2022/07/14 07:35:36;;;;;;;5.22;0.82;;;;;;;17.75;81.78;156979.13;4990647;28;20160;-79
2022/07/14 07:38:02;;;;;;;6.25;0.90;;;;;;;17.73;82.38;156974.00;4996427;28;20512;-79
2022/07/14 07:40:28;;;;;;;6.15;0.90;;;;;;;17.59;82.04;156939.16;5004096;28;20094;-79
2022/07/14 07:42:53;;;;;;;7.57;1.42;;;;;;;17.47;82.12;156909.56;5006727;28;20037;-79
2022/07/14 07:45:19;;;;;;;2.92;0.82;;;;;;;17.20;87.68;156841.31;5005168;28;20033;-79
2022/07/14 07:47:45;;;;;;;7.55;0.70;;;;;;;17.19;86.42;156838.69;4998729;28;20069;-79
2022/07/14 07:50:11;;;;;;;4.57;0.60;;;;;;;17.13;83.08;156824.53;5025512;28;20052;-81
2022/07/14 07:52:37;;;;;;;4.68;0.80;;;;;;;17.08;83.29;156811.66;4977278;28;20060;-79
2022/07/14 07:55:08;;;;;;;6.40;0.95;;;;;;;17.29;80.78;156864.44;5010248;28;20049;-81
2022/07/14 07:57:34;;;;;;;4.38;0.73;;;;;;;17.78;78.67;156986.84;4995201;28;20029;-79
2022/07/14 07:59:59;;;;;;;2.15;0.57;;;;;;;18.24;76.24;157102.91;5009822;28;20060;-79
2022/07/14 08:02:26;;;;;;;4.45;0.50;;;;;;;18.37;73.90;157135.13;5010194;28;20052;-80
2022/07/14 08:04:52;;;;;;;3.35;0.60;;;;;;;18.68;71.03;157215.06;4993341;28;20149;-79
2022/07/14 08:07:18;;;;;;;3.20;0.85;;;;;;;18.86;72.62;157260.19;5025206;28;20042;-78
2022/07/14 08:09:45;;;;;;;3.25;0.77;;;;;;;18.87;70.63;157261.47;5010139;28;20042;-79
2022/07/14 08:12:10;;;;;;;4.53;0.75;;;;;;;19.00;69.63;157295.00;5007720;28;20394;-80
2022/07/14 08:14:48;;;;;;;1.42;0.63;;;;;;;19.18;69.93;157340.16;4999352;28;20045;-80
2022/07/14 08:17:15;;;;;;;5.25;0.70;;;;;;;19.05;68.70;157307.91;5026382;28;20037;-79
2022/07/14 08:19:41;;;;;;;4.00;0.80;;;;;;;19.04;74.39;157304.03;5024657;28;20104;-79
2022/07/14 08:22:06;;;;;;;6.10;1.02;;;;;;;18.96;75.57;157283.41;5001471;28;20405;-80
2022/07/14 08:24:32;;;;;;;7.90;1.10;;;;;;;18.78;74.91;157239.53;5010373;28;20072;-81
2022/07/14 08:26:57;;;;;;;4.95;0.80;;;;;;;18.22;75.38;157099.03;5016105;28;20034;-80
2022/07/14 08:29:23;;;;;;;4.43;0.82;;;;;;;17.86;74.06;157007.53;5025969;28;20041;-79
2022/07/14 08:31:49;;;;;;;4.53;0.65;;;;;;;17.97;73.35;157035.88;5012285;28;20149;-80
2022/07/14 08:34:15;;;;;;;5.63;0.70;;;;;;;18.26;71.63;157108.03;5006764;28;20042;-79
2022/07/14 08:36:41;;;;;;;3.72;0.70;;;;;;;18.61;70.66;157195.66;4997207;28;20038;-78
2022/07/14 08:39:06;;;;;;;3.40;0.65;;;;;;;18.99;69.98;157291.16;4990600;28;20095;-78
2022/07/14 08:41:34;;;;;;;7.38;0.80;;;;;;;19.31;69.78;157372.38;5017156;28;20559;-78
2022/07/14 08:44:00;;;;;;;4.55;0.73;;;;;;;19.53;68.26;157427.81;5025635;28;20049;-80
2022/07/14 08:46:27;;;;;;;5.57;0.50;;;;;;;19.18;68.95;157340.16;5005026;28;20037;-79
2022/07/14 08:48:53;;;;;;;3.97;0.93;;;;;;;18.73;74.44;157225.34;5006875;28;20038;-81
2022/07/14 08:51:20;;;;;;;2.38;0.60;;;;;;;18.27;71.60;157111.91;4991006;28;20100;-80
2022/07/14 08:53:45;;;;;;;9.23;1.10;;;;;;;18.08;73.06;157062.91;5024063;28;20061;-80
2022/07/14 08:56:11;;;;;;;2.47;0.40;;;;;;;18.11;71.11;157069.38;5012575;28;20092;-79
2022/07/14 08:58:41;;;;;;;3.55;0.60;;;;;;;18.26;72.55;157108.03;5024877;28;20030;-80
2022/07/14 09:01:07;;;;;;;2.88;0.70;;;;;;;18.38;70.42;157137.69;5013339;28;20064;-79
2022/07/14 09:03:33;;;;;;;3.30;0.68;;;;;;;18.43;75.07;157151.84;5017896;28;20044;-80
2022/07/14 09:05:59;;;;;;;4.22;0.90;;;;;;;18.66;75.53;157208.56;5002360;28;20409;-77
2022/07/14 09:08:24;;;;;;;3.38;1.02;;;;;;;18.63;73.47;157202.16;4994752;28;20042;-82
2022/07/14 09:10:50;;;;;;;7.00;0.68;;;;;;;18.53;77.58;157176.34;4997985;28;20056;-80
2022/07/14 09:13:18;;;;;;;3.60;0.70;;;;;;;18.53;78.74;157176.34;5029067;28;20040;-80
2022/07/14 09:15:45;;;;;;;4.80;0.70;;;;;;;18.55;73.53;157180.22;5020973;28;20104;-80
2022/07/14 09:18:26;;;;;;;3.92;0.70;;;;;;;18.62;71.96;157199.53;5004831;28;20586;-81
2022/07/14 09:20:54;;;;;;;3.47;0.50;;;;;;;18.87;70.84;157261.47;4994372;28;20084;-79
2022/07/14 09:23:31;;;;;;;6.55;1.23;;;;;;;19.10;69.45;157318.22;4993098;28;20096;-80
2022/07/14 09:26:11;;;;;;;2.30;0.65;;;;;;;19.43;63.67;157403.31;5014992;28;20045;-79
2022/07/14 09:28:42;;;;;;;4.07;0.70;;;;;;;19.76;64.83;157484.63;5006109;28;20026;-79
2022/07/14 09:31:25;;;;;;;3.00;0.50;;;;;;;20.34;63.00;157630.41;4998612;28;20029;-81
2022/07/14 09:33:56;;;;;;;2.40;0.50;;;;;;;20.84;63.08;157756.94;5012244;28;20112;-80
2022/07/14 09:36:30;;;;;;;3.28;0.50;;;;;;;20.84;58.71;157756.94;4985508;28;20052;-82
2022/07/14 09:39:00;;;;;;;3.28;0.50;;;;;;;20.50;61.17;157671.72;5026869;28;20034;-81
2022/07/14 09:41:26;;;;;;;1.65;0.47;;;;;;;20.47;61.09;157663.94;5018160;28;20034;-81
2022/07/14 09:44:13;;;;;;;3.80;0.88;;;;;;;20.29;59.67;157617.53;5009822;28;20056;-80
2022/07/14 09:46:54;;;;;;;4.00;0.65;;;;;;;20.46;59.43;157660.13;5026843;28;20113;-81
2022/07/14 09:49:26;;;;;;;1.77;0.45;;;;;;;20.09;60.15;157568.47;5010629;28;20430;-79
2022/07/14 09:51:57;;;;;;;2.85;0.50;;;;;;;19.93;58.25;157527.19;5029361;28;20042;-79
2022/07/14 09:54:49;;;;;;;2.58;0.38;;;;;;;20.31;56.47;157622.69;5018874;28;20577;-79
2022/07/14 09:57:14;;;;;;;4.55;0.60;;;;;;;20.90;58.89;157771.13;5019365;28;20041;-81
2022/07/14 09:59:47;;;;;;;2.88;0.50;;;;;;;21.30;57.03;157871.81;5005526;28;20524;-78
2022/07/14 10:02:26;;;;;;;7.53;0.57;;;;;;;21.76;54.43;157989.34;5026097;28;20044;-80
2022/07/14 10:04:54;;;;;;;5.05;0.68;;;;;;;22.01;53.12;158051.34;4988018;28;20065;-81
2022/07/14 10:07:21;;;;;;;3.67;0.50;;;;;;;21.69;55.14;157971.25;5029670;28;20038;-79
2022/07/14 10:09:59;;;;;;;2.35;0.30;;;;;;;21.41;51.43;157898.94;5026916;28;20068;-82
2022/07/14 10:12:26;;;;;;;7.60;0.50;;;;;;;21.47;54.38;157915.75;4990787;28;20109;-81
2022/07/14 10:14:52;;;;;;;1.80;0.60;;;;;;;21.74;53.01;157982.91;4989988;28;20042;-80
2022/07/14 10:17:19;;;;;;;3.22;0.70;;;;;;;21.74;49.57;157984.19;5015165;28;20029;-79
2022/07/14 10:19:46;;;;;;;5.40;0.50;;;;;;;21.48;52.20;157917.06;4974868;28;20038;-80
2022/07/14 10:22:14;;;;;;;2.72;0.40;;;;;;;21.42;54.46;157901.47;4991515;28;20068;-79
2022/07/14 10:24:42;;;;;;;2.28;0.47;;;;;;;20.88;53.54;157765.97;4992613;28;20068;-80
2022/07/14 10:27:08;;;;;;;2.92;0.60;;;;;;;20.71;55.76;157723.38;5021454;28;20045;-78
2022/07/14 10:29:34;;;;;;;3.90;1.02;;;;;;;20.70;63.68;157720.78;5009118;28;20068;-80
2022/07/14 10:32:06;;;;;;;5.90;0.82;;;;;;;20.50;60.52;157671.72;5008738;28;20078;-81
2022/07/14 10:35:10;;;;;;;1.90;0.43;;;;;;;20.36;57.86;157635.56;5021761;28;20038;-79
2022/07/14 10:38:05;;;;;;;3.10;0.55;;;;;;;20.28;57.19;157614.94;4996603;28;20038;-78
2022/07/14 10:40:45;;;;;;;3.08;0.60;;;;;;;20.31;62.98;157623.97;5011004;28;20042;-81
2022/07/14 10:43:15;;;;;;;2.28;0.50;;;;;;;20.28;61.96;157616.22;5013739;28;20042;-78
2022/07/14 10:45:52;;;;;;;3.97;0.63;;;;;;;20.02;63.87;157550.41;5017893;28;20128;-79
2022/07/14 10:48:32;;;;;;;3.50;0.90;;;;;;;19.86;66.30;157510.44;4992041;28;20076;-78
2022/07/14 10:51:14;;;;;;;6.82;1.00;;;;;;;19.97;67.80;157537.53;4993912;28;20030;-79
2022/07/14 10:54:05;;;;;;;2.85;0.50;;;;;;;20.36;70.04;157636.88;5003697;28;20046;-80
2022/07/14 10:56:31;;;;;;;2.60;0.68;;;;;;;20.66;62.29;157711.75;4973473;28;20041;-80
2022/07/14 10:59:25;;;;;;;3.85;0.50;;;;;;;20.94;59.88;157782.72;5012687;28;20060;-80
2022/07/14 11:02:12;;;;;;;3.88;0.60;;;;;;;21.09;60.32;157820.16;5012165;28;20034;-80
2022/07/14 11:04:57;;;;;;;4.70;0.80;;;;;;;21.16;62.62;157838.25;5006337;28;20036;-80
2022/07/14 11:07:52;;;;;;;5.63;0.73;;;;;;;20.88;60.41;157767.25;5010913;28;20049;-81
2022/07/14 11:10:21;;;;;;;4.13;0.70;;;;;;;20.84;61.31;157756.94;5004921;28;20073;-79
2022/07/14 11:13:05;;;;;;;4.85;0.70;;;;;;;21.28;63.43;157866.66;4983818;28;20061;-79
2022/07/14 11:15:39;;;;;;;4.78;0.95;;;;;;;;;;5000776;28;20038;-80
2022/07/14 11:18:17;;;;;;;4.25;0.50;;;;;;;20.80;59.33;157747.91;5028925;28;20028;-80
2022/07/14 11:21:11;;;;;;;5.43;0.88;;;;;;;20.91;61.70;157775.00;4993310;28;20042;-81
2022/07/14 11:23:49;;;;;;;3.95;0.80;;;;;;;20.66;63.58;157711.75;5008828;28;20398;-80
2022/07/14 11:26:36;;;;;;;6.82;0.90;;;;;;;20.61;63.47;157698.88;5011941;28;20044;-81
2022/07/14 11:29:11;;;;;;;5.22;0.77;;;;;;;20.83;64.64;157754.31;5028040;28;20049;-81
2022/07/14 11:31:48;;;;;;;3.40;0.70;;;;;;;20.99;62.63;157795.66;4984784;28;20033;-80
2022/07/14 11:37:14;;;;;;;4.32;0.70;;;;;;;21.03;66.00;157804.69;5001963;28;20046;-80